Time;durP1;ratioP1;P1;durP2;ratioP2;P2;SDS_P1;SDS_P2;PMS_P1;PMS_P2;Temp;Humidity;BMP_temperature;BMP_pressure;BME280_temperature;BME280_humidity;BME280_pressure;Samples;Min_cycle;Max_cycle;Signal;HPM_P1;HPM_P2
2023/08/07 00:00:01;;;;;;;0.40;0.40;;;21.90;63.50;;;22.09;48.63;94039.06;5054752;28;20200;-39
2023/08/07 00:02:31;;;;;;;0.50;0.50;;;21.80;63.40;;;22.08;48.51;94038.25;5054605;28;20193;-39
2023/08/07 00:04:59;;;;;;;0.50;0.50;;;21.80;63.30;;;22.05;48.54;94042.28;5054389;28;20200;-39
2023/08/07 00:07:26;;;;;;;0.40;0.40;;;21.80;63.30;;;22.04;48.55;94039.91;5054671;28;20536;-39
2023/08/07 00:09:53;;;;;;;0.50;0.50;;;21.80;63.30;;;22.03;48.53;94043.66;5054925;28;20196;-39
2023/08/07 00:12:20;;;;;;;0.43;0.43;;;21.80;63.30;;;22.01;48.54;94049.28;5070139;28;20285;-39
2023/08/07 00:14:50;;;;;;;0.40;0.40;;;21.80;63.30;;;21.98;48.26;94039.16;5070142;28;20220;-39
2023/08/07 00:17:17;;;;;;;0.50;0.50;;;21.80;63.20;;;21.98;48.61;94041.06;5054288;28;20206;-39
2023/08/07 00:19:44;;;;;;;0.47;0.47;;;21.70;63.20;;;21.97;48.55;94037.59;5054292;28;20233;-39
2023/08/07 00:22:11;;;;;;;0.47;0.47;;;21.70;63.30;;;21.98;48.58;94030.38;5054408;28;20284;-39
2023/08/07 00:24:38;;;;;;;0.40;0.40;;;21.70;63.20;;;21.95;48.31;94039.75;5054759;28;20203;-39
2023/08/07 00:27:09;;;;;;;0.50;0.50;;;21.70;63.20;;;21.94;48.57;94043.50;5054243;28;20657;-39
2023/08/07 00:29:36;;;;;;;0.50;0.50;;;21.70;63.10;;;21.93;48.24;94035.78;5037369;28;20211;-39
2023/08/07 00:32:05;;;;;;;0.40;0.40;;;21.70;63.20;;;21.92;48.53;94042.97;5053149;28;20218;-39
2023/08/07 00:34:32;;;;;;;0.57;0.57;;;21.70;63.40;;;21.91;48.54;94030.75;5054863;28;20191;-39
2023/08/07 00:36:59;;;;;;;0.40;0.40;;;21.70;63.20;;;21.90;48.48;94032.59;5073474;28;20203;-39
2023/08/07 00:39:27;;;;;;;0.47;0.47;;;21.70;63.30;;;21.90;48.42;94029.16;5056737;28;20195;-39
2023/08/07 00:41:54;;;;;;;0.45;0.45;;;21.70;63.20;;;21.89;48.39;94030.22;5058160;28;20198;-39
2023/08/07 00:44:23;;;;;;;0.50;0.50;;;21.70;63.20;;;21.87;48.44;94025.16;5057497;28;20278;-39
2023/08/07 00:46:51;;;;;;;0.50;0.50;;;21.70;63.10;;;21.85;48.17;94027.31;5073254;28;20203;-39
2023/08/07 00:49:19;;;;;;;0.50;0.50;;;21.60;64.00;;;21.84;48.35;94017.72;5057522;28;20315;-39
2023/08/07 00:51:47;;;;;;;0.50;0.50;;;21.60;63.00;;;21.84;48.28;94024.94;5056378;28;20326;-39
2023/08/07 00:54:18;;;;;;;0.50;0.50;;;21.60;63.10;;;21.82;48.67;94045.78;5039937;28;20291;-39
2023/08/07 00:56:45;;;;;;;0.50;0.50;;;21.60;63.10;;;21.80;48.12;94027.38;5057984;28;20211;-39
2023/08/07 00:59:14;;;;;;;0.40;0.40;;;21.60;63.00;;;21.77;48.26;94043.19;5056587;28;20195;-39
2023/08/07 01:01:42;;;;;;;0.50;0.50;;;21.60;63.00;;;21.75;48.48;94035.44;5056786;28;20294;-39
2023/08/07 01:04:09;;;;;;;0.50;0.50;;;21.60;63.00;;;21.73;48.31;94035.72;5056403;28;20290;-37
2023/08/07 01:06:36;;;;;;;0.47;0.47;;;21.60;63.00;;;21.72;48.36;94036.78;5057297;28;20196;-36
2023/08/07 01:09:04;;;;;;;0.50;0.50;;;21.50;62.80;;;21.71;48.44;94032.53;5057695;28;20196;-40
2023/08/07 01:11:50;;;;;;;0.50;0.50;;;21.50;63.00;;;21.68;48.30;94041.13;5056221;28;20231;-37
2023/08/07 01:14:48;;;;;;;0.40;0.40;;;21.50;62.90;;;21.65;48.38;94028.31;5056012;28;20195;-39
2023/08/07 01:17:16;;;;;;;0.40;0.40;;;21.50;63.00;;;21.68;48.38;94037.63;5056481;28;20216;-37
2023/08/07 01:19:44;;;;;;;0.40;0.40;;;21.50;63.00;;;21.66;48.49;94040.59;5057430;28;20729;-37
2023/08/07 01:22:17;;;;;;;0.47;0.47;;;21.50;63.10;;;21.62;48.62;94034.25;5039915;28;20649;-39
2023/08/07 01:24:47;;;;;;;0.40;0.40;;;21.50;63.10;;;21.67;48.36;94036.84;5057184;28;20192;-36
2023/08/07 01:27:17;;;;;;;0.50;0.50;;;21.50;63.10;;;21.65;48.29;94039.00;5057272;28;20222;-37
2023/08/07 01:29:52;;;;;;;0.50;0.50;;;21.40;63.00;;;21.64;48.10;94040.09;5057035;28;20229;-37
2023/08/07 01:32:32;;;;;;;0.40;0.40;;;21.40;62.90;;;21.63;48.54;94037.69;5056963;28;20215;-37
2023/08/07 01:35:03;;;;;;;0.50;0.50;;;21.50;62.90;;;21.61;48.15;94043.31;5055589;28;20198;-37
2023/08/07 01:37:34;;;;;;;0.40;0.40;;;21.40;62.80;;;21.61;48.28;94039.88;5056940;28;20518;-37
2023/08/07 01:40:05;;;;;;;0.40;0.40;;;21.50;63.00;;;21.59;48.34;94040.94;5055768;28;20270;-37
2023/08/07 01:42:32;;;;;;;0.50;0.50;;;21.40;63.00;;;21.58;48.24;94041.22;5056226;28;20194;-37
2023/08/07 01:45:00;;;;;;;0.50;0.50;;;21.40;62.90;;;21.57;48.34;94039.66;5056268;28;20199;-37
2023/08/07 01:47:27;;;;;;;0.50;0.50;;;21.40;62.80;;;21.56;48.18;94044.16;5054600;28;20294;-37
2023/08/07 01:49:54;;;;;;;0.40;0.40;;;21.40;62.90;;;21.56;48.47;94046.03;5056406;28;20192;-37
2023/08/07 01:52:22;;;;;;;0.38;0.38;;;21.40;62.90;;;21.56;48.19;94051.34;5056219;28;20716;-37
2023/08/07 01:54:49;;;;;;;0.40;0.40;;;21.40;62.90;;;21.54;48.12;94050.84;5055171;28;20204;-37
2023/08/07 01:57:16;;;;;;;0.40;0.40;;;21.40;62.90;;;21.54;48.41;94048.16;5056745;28;20194;-37
2023/08/07 01:59:44;;;;;;;0.40;0.40;;;21.40;63.00;;;21.54;48.14;94046.28;5055213;28;20296;-37
2023/08/07 02:02:11;;;;;;;0.40;0.40;;;21.30;62.90;;;21.53;48.25;94055.38;5055462;28;20206;-37
2023/08/07 02:04:39;;;;;;;0.40;0.40;;;21.30;62.90;;;21.53;48.57;94059.91;5055196;28;20264;-37
2023/08/07 02:07:06;;;;;;;0.50;0.50;;;21.40;62.90;;;21.52;48.48;94048.47;5056062;28;20540;-37
2023/08/07 02:09:33;;;;;;;0.43;0.43;;;21.30;62.90;;;21.53;48.01;94052.72;5056000;28;20204;-37
2023/08/07 02:12:01;;;;;;;0.40;0.40;;;21.30;62.90;;;21.52;48.28;94061.78;5055940;28;20227;-37
2023/08/07 02:14:28;;;;;;;0.40;0.40;;;21.30;62.80;;;21.50;47.83;94071.94;5054788;28;20658;-37
2023/08/07 02:16:56;;;;;;;0.47;0.47;;;21.30;62.80;;;21.51;47.95;94067.44;5055304;28;20208;-37
2023/08/07 02:19:24;;;;;;;0.43;0.43;;;21.30;62.70;;;21.51;48.31;94070.09;5056112;28;20231;-37
2023/08/07 02:21:51;;;;;;;0.40;0.40;;;21.30;62.80;;;21.48;48.42;94073.31;5055767;28;20199;-37
2023/08/07 02:24:19;;;;;;;0.40;0.40;;;21.30;62.80;;;21.48;48.35;94065.31;5055562;28;20195;-37
2023/08/07 02:26:46;;;;;;;0.40;0.40;;;21.30;62.80;;;21.48;48.08;94062.63;5055042;28;20535;-37
2023/08/07 02:29:14;;;;;;;0.50;0.50;;;21.30;62.90;;;21.47;48.37;94069.84;5054683;28;20210;-37
2023/08/07 02:31:41;;;;;;;0.40;0.40;;;21.30;62.80;;;21.46;47.89;94070.13;5055525;28;20670;-37
2023/08/07 02:34:08;;;;;;;0.57;0.57;;;21.30;62.80;;;21.45;48.06;94061.31;5055754;28;20746;-37
2023/08/07 02:36:35;;;;;;;0.50;0.50;;;21.30;62.80;;;21.46;48.04;94065.59;5055771;28;20227;-37
2023/08/07 02:39:03;;;;;;;0.50;0.50;;;21.20;62.70;;;21.44;48.34;94063.19;5054502;28;20772;-37
2023/08/07 02:41:31;;;;;;;0.47;0.47;;;21.30;62.80;;;21.44;48.15;94076.53;5055425;28;20212;-37
2023/08/07 02:44:00;;;;;;;0.50;0.50;;;21.20;62.70;;;21.41;48.15;94069.09;5054248;28;20195;-37
2023/08/07 02:46:27;;;;;;;0.40;0.40;;;21.20;62.70;;;21.41;48.12;94069.09;5055362;28;20204;-37
2023/08/07 02:48:54;;;;;;;0.50;0.50;;;21.20;62.70;;;21.40;48.10;94067.50;5055744;28;20195;-37
2023/08/07 02:51:21;;;;;;;0.50;0.50;;;21.20;62.80;;;21.42;48.25;94067.22;5054059;28;20277;-37
2023/08/07 02:53:48;;;;;;;0.50;0.50;;;21.20;62.80;;;21.41;48.36;94068.28;5054158;28;20252;-37
2023/08/07 02:56:15;;;;;;;0.45;0.45;;;21.20;62.80;;;21.40;48.35;94056.03;5054221;28;20204;-37
2023/08/07 02:58:42;;;;;;;0.40;0.40;;;21.20;62.90;;;21.40;48.42;94075.50;5054009;28;20254;-37
2023/08/07 03:01:11;;;;;;;0.40;0.40;;;21.20;62.80;;;21.37;48.40;94062.75;5055369;28;20592;-37
2023/08/07 03:03:38;;;;;;;0.40;0.40;;;21.20;62.70;;;21.38;48.09;94063.53;5054070;28;20202;-37
2023/08/07 03:06:05;;;;;;;0.40;0.40;;;21.20;62.80;;;21.39;48.37;94065.13;5054299;28;20289;-37
2023/08/07 03:08:33;;;;;;;0.40;0.40;;;21.20;62.90;;;21.37;48.01;94061.94;5054040;28;20211;-37
2023/08/07 03:11:00;;;;;;;0.50;0.50;;;21.20;62.90;;;21.37;48.40;94057.41;5055147;28;20505;-37
2023/08/07 03:13:27;;;;;;;0.40;0.40;;;21.20;62.90;;;21.35;48.25;94059.56;5053811;28;20199;-37
2023/08/07 03:16:04;;;;;;;0.50;0.50;;;21.20;62.90;;;21.35;48.11;94062.22;5055155;28;20269;-37
2023/08/07 03:18:32;;;;;;;0.50;0.50;;;21.20;62.90;;;21.35;48.28;94064.88;5055203;28;20186;-37
2023/08/07 03:21:00;;;;;;;0.50;0.50;;;21.20;62.80;;;21.35;48.12;94069.41;5053962;28;20207;-37
2023/08/07 03:23:28;;;;;;;0.50;0.50;;;21.20;62.80;;;21.35;48.17;94077.41;5053924;28;20213;-37
2023/08/07 03:26:12;;;;;;;0.40;0.40;;;21.20;62.90;;;21.35;48.21;94075.56;5053860;28;20278;-37
2023/08/07 03:28:46;;;;;;;0.47;0.47;;;21.20;62.80;;;21.34;48.22;94079.28;5055305;28;20176;-37
2023/08/07 03:31:15;;;;;;;0.40;0.40;;;21.20;62.80;;;21.33;47.87;94077.69;5053739;28;20223;-37
2023/08/07 03:33:42;;;;;;;0.50;0.50;;;21.20;62.80;;;21.31;47.96;94082.50;5053638;28;20207;-37
2023/08/07 03:36:10;;;;;;;0.40;0.40;;;21.20;62.70;;;21.31;48.28;94079.84;5053982;28;20690;-37
2023/08/07 03:38:38;;;;;;;0.45;0.45;;;21.10;62.70;;;21.31;47.90;94079.06;5053754;28;20211;-37
2023/08/07 03:41:05;;;;;;;0.40;0.40;;;21.10;62.70;;;21.30;48.11;94080.94;5053833;28;20192;-37
2023/08/07 03:43:33;;;;;;;0.57;0.57;;;21.10;62.80;;;21.28;48.30;94077.75;5053598;28;20235;-37
2023/08/07 03:46:00;;;;;;;0.47;0.47;;;21.10;62.80;;;21.29;48.33;94079.34;5053698;28;20238;-37
2023/08/07 03:48:31;;;;;;;0.40;0.40;;;21.10;62.80;;;21.28;48.05;94073.19;5053668;28;20278;-37
2023/08/07 03:51:05;;;;;;;0.40;0.40;;;21.10;62.80;;;21.28;48.26;94089.19;5054763;28;20233;-37
2023/08/07 03:53:37;;;;;;;0.40;0.40;;;21.10;62.90;;;21.27;48.35;94074.28;5071150;28;20219;-37
2023/08/07 03:56:05;;;;;;;0.45;0.45;;;21.10;63.00;;;21.29;48.64;94084.69;5054323;28;20230;-37
2023/08/07 03:58:34;;;;;;;0.40;0.40;;;21.10;63.00;;;21.29;48.04;94071.34;5037443;28;20206;-37
2023/08/07 04:01:02;;;;;;;0.40;0.40;;;21.10;63.00;;;21.28;48.08;94086.53;5054757;28;20195;-37
2023/08/07 04:03:31;;;;;;;0.50;0.50;;;21.10;63.00;;;21.28;48.40;94088.41;5053519;28;20718;-37
2023/08/07 04:06:05;;;;;;;0.60;0.60;;;21.10;63.00;;;21.29;48.46;94095.34;5053571;28;20203;-37
2023/08/07 04:08:32;;;;;;;0.50;0.50;;;21.10;63.00;;;21.30;48.22;94099.59;5054770;28;20191;-37
2023/08/07 04:11:04;;;;;;;0.47;0.47;;;21.10;63.00;;;21.28;48.42;94091.88;5057820;28;20548;-37
2023/08/07 04:13:33;;;;;;;0.43;0.43;;;21.10;63.10;;;21.28;48.24;94088.41;5058738;28;20739;-37
2023/08/07 04:16:04;;;;;;;0.50;0.50;;;21.10;63.10;;;21.28;48.52;94096.41;5058015;28;20233;-37
2023/08/07 04:18:32;;;;;;;0.40;0.40;;;21.10;63.00;;;21.27;48.39;94098.28;5057181;28;20214;-37
2023/08/07 04:21:01;;;;;;;0.40;0.40;;;21.10;62.90;;;21.27;48.04;94100.94;5041136;28;20245;-37
2023/08/07 04:23:28;;;;;;;0.43;0.43;;;21.10;63.00;;;21.26;48.17;94093.22;5057883;28;20235;-37
2023/08/07 04:25:56;;;;;;;0.55;0.55;;;21.10;63.00;;;21.26;48.49;94095.91;5057848;28;20200;-37
2023/08/07 04:28:23;;;;;;;0.40;0.40;;;21.10;62.90;;;21.24;48.49;94096.19;5056969;28;20534;-37
2023/08/07 04:30:51;;;;;;;0.40;0.40;;;21.10;62.90;;;21.24;48.19;94104.19;5056954;28;20284;-37
2023/08/07 04:33:20;;;;;;;0.45;0.45;;;21.10;62.80;;;21.22;47.93;94098.31;5058052;28;20289;-37
2023/08/07 04:35:48;;;;;;;0.40;0.40;;;21.10;62.90;;;21.22;48.38;94092.19;5057616;28;20195;-37
2023/08/07 04:38:16;;;;;;;0.40;0.40;;;21.00;62.80;;;21.22;48.34;94094.88;5057995;28;20204;-37
2023/08/07 04:40:48;;;;;;;0.40;0.40;;;21.00;62.80;;;21.20;48.54;94099.69;5057733;28;20215;-37
2023/08/07 04:43:17;;;;;;;0.50;0.50;;;21.10;63.80;;;21.19;48.04;94100.75;5057113;28;20191;-37
2023/08/07 04:45:47;;;;;;;0.50;0.50;;;21.00;62.70;;;21.18;48.36;94097.28;5057270;28;20595;-37
2023/08/07 04:48:15;;;;;;;0.40;0.40;;;21.00;63.70;;;21.17;48.27;94097.59;5057916;28;20373;-37
2023/08/07 04:50:42;;;;;;;0.40;0.40;;;21.00;63.70;;;21.17;48.23;94100.25;5057783;28;20200;-37
2023/08/07 04:53:10;;;;;;;0.43;0.43;;;21.00;62.80;;;21.16;48.20;94106.66;5057178;28;20619;-37
2023/08/07 04:55:38;;;;;;;0.40;0.40;;;21.00;62.80;;;21.15;48.37;94102.38;5057412;28;20202;-37
2023/08/07 04:58:05;;;;;;;0.45;0.45;;;21.00;62.80;;;21.14;48.02;94101.59;5057399;28;20191;-37
2023/08/07 05:00:33;;;;;;;0.50;0.50;;;21.00;62.80;;;21.14;48.16;94098.13;5057362;28;20199;-37
2023/08/07 05:03:01;;;;;;;0.40;0.40;;;21.00;62.70;;;21.13;48.13;94107.19;5057314;28;20210;-37
2023/08/07 05:05:29;;;;;;;0.40;0.40;;;21.00;62.90;;;21.12;48.12;94098.41;5057127;28;20224;-37
2023/08/07 05:07:59;;;;;;;0.40;0.40;;;21.00;62.90;;;21.13;48.31;94096.53;5057736;28;20190;-37
2023/08/07 05:10:26;;;;;;;0.40;0.40;;;21.00;63.00;;;21.13;48.23;94101.84;5057141;28;20187;-37
2023/08/07 05:12:55;;;;;;;0.50;0.50;;;21.00;63.00;;;21.11;48.25;94099.47;5057034;28;20307;-37
2023/08/07 05:15:24;;;;;;;0.40;0.40;;;21.00;62.90;;;21.11;48.64;94108.25;5057068;28;20292;-37
2023/08/07 05:17:52;;;;;;;0.40;0.40;;;21.00;62.90;;;21.10;48.32;94106.69;5056940;28;20537;-37
2023/08/07 05:20:19;;;;;;;0.40;0.40;;;20.90;62.80;;;21.11;48.14;94105.59;5056251;28;20282;-37
2023/08/07 05:22:47;;;;;;;0.47;0.47;;;21.00;63.00;;;21.10;48.52;94106.69;5057419;28;20205;-37
2023/08/07 05:25:15;;;;;;;0.47;0.47;;;20.90;62.90;;;21.10;48.40;94104.03;5056956;28;20678;-37
2023/08/07 05:27:44;;;;;;;0.50;0.50;;;20.90;62.90;;;21.11;48.31;94104.81;5040021;28;20194;-36
2023/08/07 05:30:12;;;;;;;0.40;0.40;;;20.90;63.00;;;21.11;48.38;94112.81;5057108;28;20225;-36
2023/08/07 05:32:40;;;;;;;0.50;0.50;;;21.00;63.00;;;21.11;48.69;94115.47;5056627;28;20280;-36
2023/08/07 05:35:08;;;;;;;0.40;0.40;;;21.00;63.10;;;21.12;48.38;94122.41;5056609;28;20222;-36
2023/08/07 05:37:36;;;;;;;0.40;0.40;;;21.00;63.10;;;21.10;48.69;94117.38;5055888;28;20501;-36
2023/08/07 05:40:05;;;;;;;0.40;0.40;;;20.90;63.00;;;21.08;48.48;94122.16;5056702;28;20253;-36
2023/08/07 05:42:32;;;;;;;0.50;0.50;;;20.90;63.00;;;21.09;48.27;94125.63;5039431;28;20209;-36
2023/08/07 05:44:59;;;;;;;0.50;0.50;;;20.90;63.10;;;21.10;48.69;94127.22;5056679;28;20204;-36
2023/08/07 05:47:26;;;;;;;0.40;0.40;;;20.90;63.20;;;21.10;49.06;94119.22;5055781;28;20205;-36
2023/08/07 05:49:53;;;;;;;0.40;0.40;;;20.90;63.20;;;21.11;48.46;94126.16;5056485;28;20194;-36
2023/08/07 05:52:22;;;;;;;0.50;0.50;;;20.90;63.10;;;21.10;48.66;94125.38;5055189;28;20246;-36
2023/08/07 05:54:50;;;;;;;0.50;0.50;;;20.90;63.10;;;21.09;48.73;94128.28;5055525;28;20190;-36
2023/08/07 05:57:18;;;;;;;0.50;0.50;;;20.90;63.20;;;21.09;48.77;94129.09;5056554;28;20191;-36
2023/08/07 05:59:45;;;;;;;0.50;0.50;;;20.90;63.20;;;21.10;48.84;94149.34;5056523;28;20581;-36
2023/08/07 06:02:12;;;;;;;0.40;0.40;;;20.90;63.30;;;21.11;48.59;94139.47;5056208;28;20209;-36
2023/08/07 06:04:40;;;;;;;0.43;0.43;;;21.00;63.40;;;21.11;48.78;94144.81;5056360;28;20223;-36
2023/08/07 06:07:08;;;;;;;0.50;0.50;;;20.90;63.30;;;21.10;48.75;94144.03;5055092;28;20198;-36
2023/08/07 06:09:35;;;;;;;0.40;0.40;;;21.00;63.40;;;21.11;48.59;94150.16;5056272;28;20621;-36
2023/08/07 06:12:03;;;;;;;0.47;0.47;;;20.90;63.30;;;21.11;48.86;94160.81;5055937;28;20215;-36
2023/08/07 06:14:30;;;;;;;0.40;0.40;;;20.90;63.30;;;21.05;48.76;94161.91;5055002;28;20307;-36
2023/08/07 06:17:01;;;;;;;0.45;0.45;;;20.90;63.20;;;21.07;48.66;94159.78;5055879;28;20272;-36
2023/08/07 06:19:28;;;;;;;0.40;0.40;;;21.00;63.30;;;21.05;48.96;94173.38;5055964;28;20178;-35
2023/08/07 06:21:59;;;;;;;0.40;0.40;;;20.90;63.20;;;21.03;48.87;94162.19;5055867;28;20194;-35
2023/08/07 06:24:28;;;;;;;0.47;0.47;;;20.90;63.20;;;21.03;48.70;94172.88;5055722;28;20284;-35
2023/08/07 06:26:55;;;;;;;0.40;0.40;;;20.90;63.20;;;21.03;49.06;94174.72;5055595;28;20227;-35
2023/08/07 06:29:22;;;;;;;0.50;0.50;;;20.90;63.30;;;21.02;49.05;94179.25;5055879;28;20256;-35
2023/08/07 06:31:49;;;;;;;0.50;0.50;;;20.90;63.40;;;21.03;48.98;94182.72;5055738;28;20281;-35
2023/08/07 06:34:16;;;;;;;0.40;0.40;;;20.90;64.20;;;21.01;49.08;94175.00;5055434;28;20278;-35
2023/08/07 06:36:44;;;;;;;0.45;0.45;;;20.90;63.30;;;21.02;49.05;94183.78;5071344;28;20194;-35
2023/08/07 06:39:11;;;;;;;0.40;0.40;;;20.90;63.40;;;21.01;48.99;94192.88;5055755;28;20212;-35
2023/08/07 06:41:38;;;;;;;0.40;0.40;;;20.90;63.40;;;20.93;48.63;94184.38;5055442;28;20195;-35
2023/08/07 06:44:06;;;;;;;0.50;0.50;;;20.90;63.50;;;21.01;49.10;94190.22;5054581;28;20206;-37
2023/08/07 06:46:34;;;;;;;0.45;0.45;;;20.80;63.50;;;21.01;49.14;94190.22;5055211;28;20194;-37
2023/08/07 06:49:01;;;;;;;0.43;0.43;;;20.90;64.50;;;21.02;49.51;94194.44;5055982;28;20633;-37
2023/08/07 06:51:28;;;;;;;0.40;0.40;;;20.80;63.60;;;21.01;49.10;94204.31;5055902;28;20289;-37
2023/08/07 06:53:55;;;;;;;0.40;0.40;;;20.80;63.60;;;21.03;49.36;94198.72;5055763;28;20522;-37
2023/08/07 06:56:22;;;;;;;0.40;0.40;;;20.80;64.60;;;21.03;49.02;94202.19;5055028;28;20220;-37
2023/08/07 06:58:49;;;;;;;0.50;0.50;;;20.90;63.90;;;21.03;49.04;94204.84;5055453;28;20199;-37
2023/08/07 07:01:16;;;;;;;0.40;0.40;;;20.90;63.80;;;21.06;49.38;94203.50;5055329;28;20501;-37
2023/08/07 07:03:46;;;;;;;0.50;0.50;;;20.90;63.90;;;21.06;49.28;94206.19;5055072;28;20256;-37
2023/08/07 07:06:14;;;;;;;0.40;0.40;;;20.90;63.90;;;21.05;48.94;94204.56;5055132;28;20197;-37
2023/08/07 07:08:41;;;;;;;0.50;0.50;;;20.90;63.80;;;21.05;49.57;94213.34;5037789;28;20674;-37
2023/08/07 07:11:08;;;;;;;0.50;0.50;;;20.90;63.80;;;21.04;49.22;94217.09;5054370;28;20203;-37
2023/08/07 07:13:36;;;;;;;0.40;0.40;;;20.90;63.80;;;21.06;49.23;94220.28;5054884;28;20273;-37
2023/08/07 07:16:03;;;;;;;0.50;0.50;;;20.90;63.90;;;21.06;49.55;94220.28;5054724;28;20197;-37
2023/08/07 07:18:31;;;;;;;0.40;0.40;;;20.90;64.00;;;21.08;49.21;94222.66;5055203;28;20266;-37
2023/08/07 07:20:59;;;;;;;0.47;0.47;;;20.90;64.20;;;21.09;49.15;94226.94;5055049;28;20192;-37
2023/08/07 07:23:27;;;;;;;0.40;0.40;;;20.90;64.00;;;21.09;49.41;94237.59;5055660;28;20526;-36
2023/08/07 07:25:55;;;;;;;0.40;0.40;;;20.90;64.00;;;21.09;49.50;94234.94;5054932;28;20198;-37
2023/08/07 07:28:22;;;;;;;0.40;0.40;;;20.90;64.20;;;21.09;49.06;94234.94;5055350;28;20191;-37
2023/08/07 07:30:50;;;;;;;0.50;0.50;;;20.90;64.10;;;21.09;49.52;94242.94;5054905;28;20215;-36
2023/08/07 07:33:17;;;;;;;0.40;0.40;;;20.90;64.20;;;21.09;49.11;94246.41;5054724;28;20603;-37
2023/08/07 07:35:44;;;;;;;0.50;0.50;;;20.90;64.10;;;21.08;49.58;94250.16;5053964;28;20231;-37
2023/08/07 07:38:12;;;;;;;0.50;0.50;;;20.90;63.90;;;21.09;49.56;94250.94;5054730;28;20221;-37
2023/08/07 07:40:39;;;;;;;0.45;0.45;;;20.90;63.90;;;21.09;49.33;94243.75;5054743;28;20205;-37
2023/08/07 07:43:06;;;;;;;0.40;0.40;;;20.90;63.90;;;21.08;49.53;94262.66;5054950;28;20253;-37
2023/08/07 07:45:35;;;;;;;0.40;0.40;;;20.90;64.00;;;21.09;49.52;94261.59;5056311;28;20228;-37
2023/08/07 07:48:04;;;;;;;0.40;0.40;;;20.90;64.00;;;21.08;49.37;94260.00;5059035;28;20194;-37
2023/08/07 07:50:31;;;;;;;0.43;0.43;;;20.90;64.00;;;21.06;49.37;94262.94;5058680;28;20199;-37
2023/08/07 07:52:58;;;;;;;0.40;0.40;;;20.90;64.00;;;21.07;49.33;94277.88;5058675;28;20291;-37
2023/08/07 07:55:26;;;;;;;0.43;0.43;;;20.90;64.00;;;21.05;49.51;94272.00;5058827;28;20189;-37
2023/08/07 07:57:54;;;;;;;0.50;0.50;;;20.90;64.10;;;21.04;49.46;94258.97;5058414;28;20635;-37
2023/08/07 08:00:26;;;;;;;0.40;0.40;;;20.90;63.90;;;21.05;49.28;94276.56;5057958;28;20249;-37
2023/08/07 08:02:53;;;;;;;0.40;0.40;;;20.90;63.80;;;21.03;49.25;94278.69;5058502;28;20218;-37
2023/08/07 08:05:21;;;;;;;0.47;0.47;;;20.90;63.80;;;21.02;49.63;94282.44;5040963;28;20623;-37
2023/08/07 08:07:48;;;;;;;0.50;0.50;;;20.90;63.90;;;21.02;49.21;94279.75;5058188;28;20203;-37
2023/08/07 08:10:15;;;;;;;0.50;0.50;;;20.90;64.00;;;21.01;49.67;94284.31;5058546;28;20206;-37
2023/08/07 08:12:42;;;;;;;0.50;0.50;;;20.90;64.00;;;21.00;49.37;94293.38;5058708;28;20216;-37
2023/08/07 08:15:10;;;;;;;0.52;0.52;;;20.90;63.90;;;20.98;49.07;94292.06;5058479;28;20229;-37
2023/08/07 08:17:37;;;;;;;0.50;0.50;;;20.90;64.00;;;20.99;49.37;94297.09;5058075;28;20199;-37
2023/08/07 08:20:06;;;;;;;0.50;0.50;;;20.90;64.10;;;20.99;49.19;94301.66;5057270;28;20620;-37
2023/08/07 08:22:33;;;;;;;0.40;0.40;;;20.90;64.20;;;20.98;49.48;94306.16;5058090;28;20543;-37
2023/08/07 08:25:01;;;;;;;0.47;0.47;;;20.80;64.00;;;20.96;49.57;94303.00;5073698;28;20201;-37
2023/08/07 08:27:28;;;;;;;0.60;0.60;;;20.80;64.10;;;20.97;49.77;94317.94;5057049;28;20194;-37
2023/08/07 08:29:55;;;;;;;0.50;0.50;;;20.80;64.10;;;20.97;49.71;94314.44;5058437;28;20297;-37
2023/08/07 08:32:22;;;;;;;0.50;0.50;;;20.90;64.20;;;20.97;49.79;94314.44;5057805;28;20615;-37
2023/08/07 08:34:50;;;;;;;0.57;0.57;;;20.80;64.10;;;20.97;49.49;94328.59;5057848;28;20196;-37
2023/08/07 08:37:17;;;;;;;0.50;0.50;;;20.80;64.20;;;20.97;49.60;94338.44;5057623;28;20244;-37
2023/08/07 08:39:44;;;;;;;0.43;0.43;;;20.80;64.10;;;20.97;49.54;94336.59;5057792;28;20241;-37
2023/08/07 08:42:18;;;;;;;0.40;0.40;;;20.80;64.10;;;20.95;49.38;94347.50;5056912;28;20184;-37
2023/08/07 08:44:53;;;;;;;0.50;0.50;;;20.80;64.10;;;20.91;49.51;94341.13;5073815;28;20187;-37
2023/08/07 08:47:25;;;;;;;0.50;0.50;;;20.80;64.00;;;20.92;49.35;94339.25;5057606;28;20266;-36
2023/08/07 08:50:07;;;;;;;0.40;0.40;;;20.80;64.10;;;20.90;49.75;94350.19;5058270;28;20341;-36
2023/08/07 08:52:38;;;;;;;0.43;0.43;;;20.80;64.10;;;20.92;49.69;94352.56;5056768;28;20324;-36
2023/08/07 08:55:06;;;;;;;0.40;0.40;;;20.80;64.10;;;20.92;49.64;94358.72;5057269;28;20188;-36
2023/08/07 08:57:34;;;;;;;0.50;0.50;;;20.80;64.10;;;20.92;49.58;94348.06;5056403;28;20199;-36
2023/08/07 09:00:06;;;;;;;0.40;0.40;;;20.80;64.10;;;20.92;49.78;94353.41;5056637;28;20218;-36
2023/08/07 09:02:34;;;;;;;0.50;0.50;;;20.80;64.10;;;20.92;49.68;94358.72;5058293;28;20179;-36
2023/08/07 09:05:02;;;;;;;0.40;0.40;;;20.80;64.10;;;20.93;50.03;94370.16;5056862;28;20195;-36
2023/08/07 09:07:29;;;;;;;0.50;0.50;;;20.80;64.10;;;20.93;49.81;94376.31;5057183;28;20190;-36
2023/08/07 09:09:57;;;;;;;0.50;0.50;;;20.80;64.10;;;20.93;49.48;94376.31;5056497;28;20711;-36
2023/08/07 09:12:29;;;;;;;0.50;0.50;;;20.80;64.10;;;20.94;50.03;94379.78;5056318;28;20200;-36
2023/08/07 09:14:58;;;;;;;0.47;0.47;;;20.80;64.10;;;20.92;49.64;94382.72;5057131;28;20191;-36
2023/08/07 09:17:31;;;;;;;0.50;0.50;;;20.80;64.10;;;20.92;49.70;94382.72;5056098;28;20198;-36
2023/08/07 09:19:58;;;;;;;0.47;0.47;;;20.80;64.20;;;20.92;49.48;94389.91;5056557;28;20195;-36
2023/08/07 09:22:25;;;;;;;0.47;0.47;;;20.80;64.10;;;20.91;49.67;94390.97;5056160;28;20699;-36
2023/08/07 09:24:53;;;;;;;0.40;0.40;;;20.80;64.10;;;20.91;49.87;94404.28;5056959;28;20201;-36
2023/08/07 09:27:21;;;;;;;0.40;0.40;;;20.80;64.10;;;20.91;49.83;94388.28;5056288;28;20706;-36
2023/08/07 09:29:48;;;;;;;0.50;0.50;;;20.80;64.20;;;20.89;49.71;94401.13;5057182;28;20532;-36
2023/08/07 09:32:18;;;;;;;0.40;0.40;;;20.80;64.10;;;20.86;49.84;94397.13;5057118;28;20188;-36
2023/08/07 09:34:45;;;;;;;0.40;0.40;;;20.80;64.10;;;20.86;49.77;94399.78;5056145;28;20215;-36
2023/08/07 09:37:12;;;;;;;0.50;0.50;;;20.80;65.00;;;20.87;49.67;94406.72;5072328;28;20275;-36
2023/08/07 09:39:40;;;;;;;0.45;0.45;;;20.70;64.10;;;20.87;49.63;94412.06;5056739;28;20231;-36
2023/08/07 09:42:15;;;;;;;0.50;0.50;;;20.80;64.10;;;20.88;49.77;94415.50;5056900;28;20683;-36
2023/08/07 09:44:48;;;;;;;0.50;0.50;;;20.80;64.10;;;20.87;49.83;94405.91;5056672;28;20205;-36
2023/08/07 09:47:18;;;;;;;0.50;0.50;;;20.80;64.10;;;20.85;49.78;94408.03;5039653;28;20532;-36
2023/08/07 09:49:46;;;;;;;0.50;0.50;;;20.80;64.10;;;20.85;49.67;94418.69;5055719;28;20623;-36
2023/08/07 09:52:15;;;;;;;0.47;0.47;;;20.70;64.00;;;20.85;49.67;94424.84;5055525;28;20540;-36
2023/08/07 09:54:42;;;;;;;0.45;0.45;;;20.80;64.10;;;20.85;49.62;94424.84;5055762;28;20223;-36
2023/08/07 09:57:10;;;;;;;0.40;0.40;;;20.80;64.10;;;20.85;49.83;94430.16;5071890;28;20575;-36
2023/08/07 09:59:37;;;;;;;0.50;0.50;;;20.70;64.10;;;20.86;50.05;94430.97;5056558;28;20198;-36
2023/08/07 10:02:05;;;;;;;0.40;0.40;;;20.70;64.00;;;20.85;50.13;94426.69;5056498;28;20183;-36
2023/08/07 10:04:32;;;;;;;0.50;0.50;;;20.70;64.00;;;20.85;49.99;94430.16;5056189;28;20237;-36
2023/08/07 10:07:01;;;;;;;0.50;0.50;;;20.70;64.00;;;20.84;50.08;94439.22;5055151;28;20191;-36
2023/08/07 10:09:30;;;;;;;0.50;0.50;;;20.70;64.00;;;20.84;50.13;94438.44;5056329;28;20198;-36
2023/08/07 10:11:58;;;;;;;0.50;0.50;;;20.70;64.00;;;20.83;49.93;94447.50;5056000;28;20199;-36
2023/08/07 10:14:26;;;;;;;0.50;0.50;;;20.70;64.00;;;20.80;49.38;94438.19;5055110;28;20211;-36
2023/08/07 10:16:54;;;;;;;0.50;0.50;;;20.70;64.00;;;20.83;49.88;94452.84;5055935;28;20191;-36
2023/08/07 10:19:22;;;;;;;0.40;0.40;;;20.70;64.00;;;20.84;49.67;94457.09;5055065;28;20187;-36
2023/08/07 10:21:50;;;;;;;0.50;0.50;;;20.80;64.10;;;20.84;50.08;94463.22;5056133;28;20210;-36
2023/08/07 10:24:18;;;;;;;0.50;0.50;;;20.80;64.10;;;20.86;49.48;94460.28;5055804;28;20662;-36